createdAt,value
2023-05-05T00:02:12.835Z,9.17
2023-05-05T00:05:01.414Z,9.07
2023-05-05T00:07:50.255Z,9.00
2023-05-05T00:10:38.775Z,9.23
2023-05-05T00:13:27.284Z,8.73
2023-05-05T00:16:17.501Z,9.53
2023-05-05T00:19:06.620Z,9.23
2023-05-05T00:21:55.142Z,9.03
2023-05-05T00:24:43.676Z,9.50
2023-05-05T00:27:32.424Z,10.03
2023-05-05T00:30:21.132Z,9.07
2023-05-05T00:33:11.287Z,8.60
2023-05-05T00:35:59.803Z,9.23
2023-05-05T00:38:48.321Z,9.47
2023-05-05T00:41:36.849Z,9.13
2023-05-05T00:44:37.221Z,8.70
2023-05-05T00:47:25.768Z,9.33
2023-05-05T00:50:23.622Z,8.60
2023-05-05T00:53:13.148Z,8.10
2023-05-05T00:56:01.715Z,9.70
2023-05-05T00:58:53.397Z,8.57
2023-05-05T01:01:41.958Z,8.97
2023-05-05T01:04:30.518Z,9.00
2023-05-05T01:07:27.797Z,8.70
2023-05-05T01:10:22.070Z,8.60
2023-05-05T01:13:21.210Z,8.80
2023-05-05T01:16:26.383Z,9.10
2023-05-05T01:19:27.672Z,9.20
2023-05-05T01:22:16.825Z,8.97
2023-05-05T01:25:17.840Z,8.80
2023-05-05T01:28:12.407Z,9.03
2023-05-05T01:31:10.783Z,8.60
2023-05-05T01:34:02.605Z,9.13
2023-05-05T01:36:56.888Z,9.27
2023-05-05T01:39:47.857Z,8.43
2023-05-05T01:42:37.538Z,8.20
2023-05-05T01:45:27.820Z,8.20
2023-05-05T01:48:18.310Z,8.53
2023-05-05T01:51:09.011Z,8.50
2023-05-05T01:53:59.148Z,9.47
2023-05-05T01:56:47.979Z,8.50
2023-05-05T01:59:37.444Z,8.17
2023-05-05T02:02:27.491Z,8.53
2023-05-05T02:05:17.091Z,7.73
2023-05-05T02:08:07.844Z,9.13
2023-05-05T02:10:56.865Z,9.17
2023-05-05T02:13:45.884Z,8.93
2023-05-05T02:16:34.842Z,8.40
2023-05-05T02:19:28.105Z,8.33
2023-05-05T02:22:16.863Z,8.73
2023-05-05T02:25:07.852Z,9.10
2023-05-05T02:27:58.078Z,9.00
2023-05-05T02:30:50.725Z,8.87
2023-05-05T02:33:39.857Z,7.97
2023-05-05T02:36:30.165Z,8.63
2023-05-05T02:39:23.450Z,9.00
2023-05-05T02:42:17.418Z,8.73
2023-05-05T02:45:11.596Z,9.00
2023-05-05T02:48:03.246Z,9.33
2023-05-05T02:50:51.724Z,9.43
2023-05-05T02:53:40.568Z,8.97
2023-05-05T02:56:35.599Z,9.03
2023-05-05T02:59:32.694Z,8.43
2023-05-05T03:02:25.525Z,9.20
2023-05-05T03:05:18.220Z,9.27
2023-05-05T03:08:12.095Z,8.77
2023-05-05T03:11:05.834Z,8.70
2023-05-05T03:14:02.685Z,9.23
2023-05-05T03:16:53.739Z,8.37
2023-05-05T03:19:43.759Z,8.70
2023-05-05T03:22:32.445Z,9.00
2023-05-05T03:25:21.151Z,8.70
2023-05-05T03:28:09.608Z,8.07
2023-05-05T03:30:58.161Z,8.57
2023-05-05T03:33:48.267Z,8.80
2023-05-05T03:36:37.098Z,8.70
2023-05-05T03:39:25.823Z,8.40
2023-05-05T03:42:14.351Z,7.90
2023-05-05T03:45:02.855Z,8.70
2023-05-05T03:47:51.381Z,8.60
2023-05-05T03:50:41.206Z,8.50
2023-05-05T03:53:29.652Z,8.30
2023-05-05T03:56:18.095Z,8.30
2023-05-05T03:59:06.899Z,8.97
2023-05-05T04:01:55.403Z,8.30
2023-05-05T04:04:43.945Z,8.33
2023-05-05T04:07:33.885Z,8.80
2023-05-05T04:10:22.506Z,8.13
2023-05-05T04:13:11.346Z,9.17
2023-05-05T04:16:00.157Z,8.47
2023-05-05T04:18:48.710Z,8.83
2023-05-05T04:21:37.167Z,8.40
2023-05-05T04:24:27.427Z,8.60
2023-05-05T04:27:15.880Z,9.60
2023-05-05T04:30:05.016Z,8.90
2023-05-05T04:32:53.772Z,9.60
2023-05-05T04:35:42.366Z,9.77
2023-05-05T04:38:30.895Z,8.77
2023-05-05T04:41:21.356Z,8.73
2023-05-05T04:44:09.920Z,8.77
2023-05-05T04:46:58.655Z,9.07
2023-05-05T04:49:47.218Z,9.00
2023-05-05T04:52:35.795Z,9.17
2023-05-05T04:55:24.240Z,9.17
2023-05-05T04:58:14.024Z,9.10
2023-05-05T05:01:03.268Z,7.20
2023-05-05T05:03:52.039Z,8.23
2023-05-05T05:06:40.524Z,7.57
2023-05-05T05:09:28.977Z,8.87
2023-05-05T05:12:17.451Z,8.80
2023-05-05T05:15:08.858Z,8.27
2023-05-05T05:17:57.910Z,8.27
2023-05-05T05:20:46.422Z,8.97
2023-05-05T05:23:35.039Z,9.50
2023-05-05T05:26:23.527Z,11.00
2023-05-05T05:29:11.944Z,11.40
2023-05-05T05:32:01.859Z,11.00
2023-05-05T05:34:50.352Z,9.87
2023-05-05T05:37:39.057Z,8.03
2023-05-05T05:40:27.511Z,8.53
2023-05-05T05:43:15.965Z,8.27
2023-05-05T05:46:05.872Z,9.10
2023-05-05T05:48:57.397Z,7.97
2023-05-05T05:51:45.898Z,8.20
2023-05-05T05:54:35.592Z,8.00
2023-05-05T05:57:24.639Z,8.03
2023-05-05T06:00:15.785Z,7.83
2023-05-05T06:03:04.457Z,8.03
2023-05-05T06:05:54.316Z,8.40
2023-05-05T06:08:42.769Z,7.57
2023-05-05T06:11:31.296Z,7.37
2023-05-05T06:14:20.202Z,7.40
2023-05-05T06:17:08.768Z,8.60
2023-05-05T06:19:57.280Z,7.57
2023-05-05T06:22:47.059Z,8.40
2023-05-05T06:25:35.546Z,7.43
2023-05-05T06:28:23.968Z,6.37
2023-05-05T06:31:12.859Z,5.90
2023-05-05T06:34:01.385Z,5.33
2023-05-05T06:36:49.939Z,4.30
2023-05-05T06:39:39.761Z,4.00
2023-05-05T06:42:28.425Z,3.87
2023-05-05T06:45:16.978Z,3.97
2023-05-05T06:48:05.940Z,3.83
2023-05-05T06:50:54.994Z,4.10
2023-05-05T06:53:43.478Z,3.67
2023-05-05T06:56:33.309Z,3.47
2023-05-05T06:59:22.020Z,3.90
2023-05-05T07:02:10.520Z,3.83
2023-05-05T07:04:59.042Z,3.93
2023-05-05T07:07:54.251Z,3.73
2023-05-05T07:10:42.781Z,3.40
2023-05-05T07:13:32.723Z,3.83
2023-05-05T07:16:21.244Z,4.07
2023-05-05T07:19:09.744Z,3.60
2023-05-05T07:21:58.247Z,3.70
2023-05-05T07:24:46.736Z,3.53
2023-05-05T07:27:35.635Z,3.20
2023-05-05T07:30:26.033Z,3.83
2023-05-05T07:33:15.809Z,4.10
2023-05-05T07:36:04.746Z,3.00
2023-05-05T07:38:53.437Z,2.80
2023-05-05T07:41:42.249Z,3.27
2023-05-05T07:44:30.727Z,3.70
2023-05-05T07:47:20.930Z,3.23
2023-05-05T07:50:10.129Z,3.77
2023-05-05T07:53:10.860Z,2.97
2023-05-05T07:56:02.680Z,3.30
2023-05-05T07:58:51.142Z,3.03
2023-05-05T08:01:39.790Z,3.73
2023-05-05T08:04:29.793Z,3.47
2023-05-05T08:07:18.366Z,3.30
2023-05-05T08:10:08.112Z,3.27
2023-05-05T08:12:56.721Z,3.53
2023-05-05T08:15:45.704Z,3.23
2023-05-05T08:18:37.450Z,3.33
2023-05-05T08:21:27.732Z,3.37
2023-05-05T08:24:16.218Z,3.30
2023-05-05T08:27:04.973Z,3.40
2023-05-05T08:29:53.451Z,5.33
2023-05-05T08:32:42.230Z,4.33
2023-05-05T08:35:30.766Z,3.60
2023-05-05T08:38:20.682Z,2.93
2023-05-05T08:41:09.865Z,3.10
2023-05-05T08:43:58.397Z,4.10
2023-05-05T08:46:47.187Z,3.00
2023-05-05T08:49:41.734Z,3.50
2023-05-05T08:52:34.811Z,3.00
2023-05-05T08:55:26.629Z,2.90
2023-05-05T08:58:16.448Z,3.23
2023-05-05T09:01:06.231Z,3.93
2023-05-05T09:03:54.727Z,3.40
2023-05-05T09:06:43.552Z,3.37
2023-05-05T09:09:32.052Z,4.00
2023-05-05T09:12:23.064Z,3.23
2023-05-05T09:15:13.090Z,3.80
2023-05-05T09:18:03.617Z,4.00
2023-05-05T09:20:52.203Z,3.30
2023-05-05T09:23:40.726Z,3.00
2023-05-05T09:26:31.989Z,3.40
2023-05-05T09:29:22.364Z,3.07
2023-05-05T09:32:10.826Z,2.37
2023-05-05T09:35:00.276Z,2.90
2023-05-05T09:37:49.037Z,3.50
2023-05-05T09:40:46.519Z,2.70
2023-05-05T09:43:51.725Z,2.50
2023-05-05T09:46:51.214Z,2.83
2023-05-05T09:49:40.181Z,2.80
2023-05-05T09:52:28.749Z,2.90
2023-05-05T09:55:18.634Z,2.83
2023-05-05T09:58:19.884Z,3.07
2023-05-05T10:01:23.134Z,2.77
2023-05-05T10:04:25.896Z,2.90
2023-05-05T10:07:24.029Z,2.13
2023-05-05T10:10:14.103Z,2.50
2023-05-05T10:13:03.152Z,2.47
2023-05-05T10:15:53.037Z,2.43
2023-05-05T10:18:44.964Z,2.67
2023-05-05T10:21:41.451Z,2.33
2023-05-05T10:24:35.894Z,2.30
2023-05-05T10:27:25.815Z,2.97
2023-05-05T10:30:18.947Z,2.40
2023-05-05T10:33:30.328Z,2.60
2023-05-05T10:36:21.511Z,2.77
2023-05-05T10:39:11.983Z,2.63
2023-05-05T10:42:02.859Z,2.33
2023-05-05T10:44:51.401Z,2.00
2023-05-05T10:47:40.807Z,1.57
2023-05-05T10:50:31.774Z,1.90
2023-05-05T10:53:24.046Z,2.00
2023-05-05T10:56:17.355Z,2.50
2023-05-05T10:59:42.747Z,2.30
2023-05-05T11:02:31.781Z,1.67
2023-05-05T11:05:22.279Z,2.40
2023-05-05T11:08:26.385Z,2.30
2023-05-05T11:11:16.325Z,2.47
2023-05-05T11:14:22.462Z,2.50
2023-05-05T11:17:45.445Z,2.73
2023-05-05T11:21:09.097Z,3.90
2023-05-05T11:24:28.203Z,2.90
2023-05-05T11:27:18.045Z,3.40
2023-05-05T11:30:09.057Z,3.23
2023-05-05T11:33:25.819Z,3.23
2023-05-05T11:36:15.233Z,2.40
2023-05-05T11:39:09.807Z,2.30
2023-05-05T11:42:23.353Z,2.10
2023-05-05T11:45:22.543Z,2.10
2023-05-05T11:48:26.513Z,2.40
2023-05-05T11:51:15.302Z,3.60
2023-05-05T11:54:03.913Z,1.90
2023-05-05T11:56:52.618Z,2.00
2023-05-05T11:59:54.403Z,2.10
2023-05-05T12:02:42.935Z,2.13
2023-05-05T12:05:32.745Z,2.27
2023-05-05T12:08:22.177Z,2.33
2023-05-05T12:11:12.033Z,2.13
2023-05-05T12:14:10.616Z,1.93
2023-05-05T12:17:08.465Z,1.93
2023-05-05T12:19:56.954Z,2.07
2023-05-05T12:22:45.488Z,1.83
2023-05-05T12:25:39.019Z,1.90
2023-05-05T12:28:44.368Z,2.10
2023-05-05T12:31:36.900Z,1.90
2023-05-05T12:34:27.349Z,1.80
2023-05-05T12:37:18.964Z,1.90
2023-05-05T12:40:09.106Z,1.97
2023-05-05T12:42:57.772Z,2.17
2023-05-05T12:45:46.374Z,2.43
2023-05-05T12:48:36.449Z,2.30
2023-05-05T12:51:27.092Z,2.73
2023-05-05T12:54:15.575Z,2.00
2023-05-05T12:57:12.374Z,2.27
2023-05-05T13:00:13.682Z,1.93
2023-05-05T13:03:02.560Z,2.30
2023-05-05T13:05:51.161Z,1.97
2023-05-05T13:08:46.945Z,2.00
2023-05-05T13:11:39.198Z,1.87
2023-05-05T13:14:27.735Z,2.57
2023-05-05T13:17:16.296Z,1.93
2023-05-05T13:20:05.460Z,2.50
2023-05-05T13:22:53.937Z,1.87
2023-05-05T13:25:43.800Z,2.07
2023-05-05T13:28:32.349Z,2.07
2023-05-05T13:31:21.119Z,2.30
2023-05-05T13:34:09.744Z,1.80
2023-05-05T13:36:58.317Z,1.93
2023-05-05T13:39:46.816Z,2.00
2023-05-05T13:42:36.774Z,2.00
2023-05-05T13:45:25.387Z,2.10
2023-05-05T13:48:13.986Z,2.20
2023-05-05T13:51:02.438Z,1.87
2023-05-05T13:53:51.497Z,2.10
2023-05-05T13:56:39.985Z,2.10
2023-05-05T13:59:30.000Z,2.20
2023-05-05T14:02:18.426Z,2.43
2023-05-05T14:05:07.958Z,2.07
2023-05-05T14:07:56.646Z,2.07
2023-05-05T14:10:47.255Z,1.90
2023-05-05T14:13:36.300Z,1.90
2023-05-05T14:16:26.160Z,1.80
2023-05-05T14:19:14.715Z,1.93
2023-05-05T14:22:03.173Z,1.83
2023-05-05T14:24:51.695Z,2.23
2023-05-05T14:27:40.240Z,1.70
2023-05-05T14:30:28.861Z,2.10
2023-05-05T14:33:18.736Z,2.27
2023-05-05T14:36:08.064Z,2.30
2023-05-05T14:38:56.604Z,2.30
2023-05-05T14:41:45.160Z,1.80
2023-05-05T14:44:33.653Z,1.70
2023-05-05T14:47:22.239Z,2.00
2023-05-05T14:50:14.110Z,2.10
2023-05-05T14:53:02.748Z,1.90
2023-05-05T14:55:51.276Z,2.10
2023-05-05T14:58:39.710Z,1.50
2023-05-05T15:01:28.381Z,2.10
2023-05-05T15:04:16.877Z,2.03
2023-05-05T15:07:06.765Z,2.10
2023-05-05T15:09:55.399Z,1.70
2023-05-05T15:12:43.952Z,2.50
2023-05-05T15:15:32.801Z,1.70
2023-05-05T15:18:21.258Z,2.27
2023-05-05T15:21:09.738Z,2.20
2023-05-05T15:23:59.661Z,2.30
2023-05-05T15:26:48.166Z,2.00
2023-05-05T15:29:36.848Z,1.97
2023-05-05T15:32:25.561Z,1.70
2023-05-05T15:35:14.109Z,2.70
2023-05-05T15:38:02.676Z,2.67
2023-05-05T15:40:52.665Z,3.27
2023-05-05T15:43:41.399Z,3.37
2023-05-05T15:46:32.752Z,3.87
2023-05-05T15:49:21.266Z,3.00
2023-05-05T15:52:09.849Z,3.30
2023-05-05T15:54:58.294Z,3.30
2023-05-05T15:57:48.348Z,3.60
2023-05-05T16:00:37.079Z,3.70
2023-05-05T16:03:25.892Z,3.67
2023-05-05T16:06:14.464Z,3.40
2023-05-05T16:09:03.779Z,4.57
2023-05-05T16:11:54.059Z,4.20
2023-05-05T16:14:43.901Z,3.50
2023-05-05T16:17:32.421Z,3.20
2023-05-05T16:20:21.138Z,4.37
2023-05-05T16:23:09.609Z,3.00
2023-05-05T16:25:58.206Z,3.10
2023-05-05T16:28:46.725Z,3.30
2023-05-05T16:31:36.669Z,3.47
2023-05-05T16:34:25.237Z,3.77
2023-05-05T16:37:13.797Z,4.13
2023-05-05T16:40:05.395Z,3.67
2023-05-05T16:42:53.984Z,2.93
2023-05-05T16:45:43.387Z,3.27
2023-05-05T16:48:33.340Z,2.70
2023-05-05T16:51:21.864Z,3.40
2023-05-05T16:54:10.349Z,2.70
2023-05-05T16:56:58.815Z,3.17
2023-05-05T16:59:47.291Z,3.07
2023-05-05T17:02:36.227Z,3.47
2023-05-05T17:05:26.925Z,3.80
2023-05-05T17:08:15.485Z,4.80
2023-05-05T17:11:03.959Z,4.20
2023-05-05T17:13:52.406Z,4.07
2023-05-05T17:16:41.032Z,3.63
2023-05-05T17:19:29.714Z,3.20
2023-05-05T17:22:19.661Z,2.93
2023-05-05T17:25:09.669Z,3.40
2023-05-05T17:27:58.685Z,3.20
2023-05-05T17:30:47.285Z,4.07
2023-05-05T17:33:35.803Z,3.27
2023-05-05T17:36:24.386Z,3.53
2023-05-05T17:39:14.307Z,4.63
2023-05-05T17:42:02.868Z,8.00
2023-05-05T17:44:51.407Z,7.03
2023-05-05T17:47:40.041Z,5.60
2023-05-05T17:50:28.628Z,5.47
2023-05-05T17:53:17.096Z,7.20
2023-05-05T17:56:08.989Z,6.80
2023-05-05T17:58:57.904Z,5.50
2023-05-05T18:01:46.477Z,5.27
2023-05-05T18:04:36.750Z,5.53
2023-05-05T18:07:25.355Z,5.97
2023-05-05T18:10:13.905Z,3.80
2023-05-05T18:13:03.889Z,4.30
2023-05-05T18:15:52.440Z,5.97
2023-05-05T18:18:41.610Z,3.97
2023-05-05T18:21:30.160Z,4.23
2023-05-05T18:24:20.320Z,3.80
2023-05-05T18:27:09.209Z,4.47
2023-05-05T18:29:59.178Z,3.97
2023-05-05T18:32:48.776Z,4.80
2023-05-05T18:35:37.330Z,4.17
2023-05-05T18:38:25.894Z,4.43
2023-05-05T18:41:15.231Z,5.00
2023-05-05T18:44:03.905Z,4.53
2023-05-05T18:46:53.830Z,5.30
2023-05-05T18:49:42.378Z,6.33
2023-05-05T18:52:30.896Z,5.90
2023-05-05T18:55:19.527Z,6.53
2023-05-05T18:58:08.064Z,5.60
2023-05-05T19:00:57.516Z,6.10
2023-05-05T19:03:49.060Z,5.90
2023-05-05T19:06:39.387Z,5.37
2023-05-05T19:09:28.111Z,5.33
2023-05-05T19:12:16.607Z,5.43
2023-05-05T19:15:05.733Z,5.60
2023-05-05T19:17:54.287Z,6.00
2023-05-05T19:20:44.261Z,4.63
2023-05-05T19:23:33.360Z,5.73
2023-05-05T19:26:22.070Z,5.00
2023-05-05T19:29:10.656Z,5.13
2023-05-05T19:31:59.204Z,4.90
2023-05-05T19:34:47.932Z,6.43
2023-05-05T19:37:37.848Z,5.90
2023-05-05T19:40:26.380Z,7.33
2023-05-05T19:43:15.055Z,8.30
2023-05-05T19:46:03.602Z,8.10
2023-05-05T19:48:54.658Z,6.43
2023-05-05T19:51:43.777Z,5.73
2023-05-05T19:54:33.723Z,4.50
2023-05-05T19:57:22.260Z,3.90
2023-05-05T20:00:12.039Z,3.87
2023-05-05T20:03:01.001Z,2.87
2023-05-05T20:05:49.572Z,2.90
2023-05-05T20:08:38.773Z,2.90
2023-05-05T20:11:29.279Z,2.40
2023-05-05T20:14:18.002Z,2.60
2023-05-05T20:17:06.510Z,3.60
2023-05-05T20:19:55.081Z,3.10
2023-05-05T20:22:43.563Z,3.47
2023-05-05T20:25:32.088Z,2.67
2023-05-05T20:28:22.112Z,2.60
2023-05-05T20:31:10.864Z,2.77
2023-05-05T20:33:59.411Z,3.00
2023-05-05T20:36:47.990Z,3.33
2023-05-05T20:39:36.556Z,2.27
2023-05-05T20:42:25.625Z,2.90
2023-05-05T20:45:16.280Z,3.10
2023-05-05T20:48:05.568Z,2.80
2023-05-05T20:50:54.162Z,2.73
2023-05-05T20:53:42.707Z,2.90
2023-05-05T20:56:31.256Z,2.80
2023-05-05T20:59:19.870Z,3.30
2023-05-05T21:02:09.774Z,3.63
2023-05-05T21:05:02.862Z,3.30
2023-05-05T21:07:51.613Z,3.53
2023-05-05T21:10:40.759Z,3.27
2023-05-05T21:13:29.285Z,3.00
2023-05-05T21:16:17.769Z,3.03
2023-05-05T21:19:07.683Z,2.57
2023-05-05T21:21:58.964Z,3.10
2023-05-05T21:24:47.508Z,2.60
2023-05-05T21:27:35.943Z,2.63
2023-05-05T21:30:24.959Z,2.70
2023-05-05T21:33:13.425Z,3.00
2023-05-05T21:36:03.344Z,2.83
2023-05-05T21:38:55.277Z,2.60
2023-05-05T21:41:43.804Z,3.00
2023-05-05T21:44:32.312Z,3.20
2023-05-05T21:47:20.815Z,2.80
2023-05-05T21:50:11.130Z,3.10
2023-05-05T21:53:01.200Z,3.00
2023-05-05T21:55:49.669Z,3.47
2023-05-05T21:58:38.201Z,3.10
2023-05-05T22:01:26.858Z,2.93
2023-05-05T22:04:15.459Z,3.57
2023-05-05T22:07:04.155Z,3.03
2023-05-05T22:09:54.023Z,2.57
2023-05-05T22:12:42.503Z,3.30
2023-05-05T22:15:38.940Z,3.47
2023-05-05T22:18:34.259Z,3.90
2023-05-05T22:21:22.903Z,3.60
2023-05-05T22:24:11.524Z,3.50
2023-05-05T22:27:01.744Z,3.60
2023-05-05T22:29:50.289Z,3.97
2023-05-05T22:32:38.879Z,3.50
2023-05-05T22:35:27.464Z,3.70
2023-05-05T22:38:16.026Z,4.20
2023-05-05T22:41:04.640Z,3.33
2023-05-05T22:43:54.502Z,3.90
2023-05-05T22:46:43.098Z,3.80
2023-05-05T22:49:31.689Z,4.30
2023-05-05T22:52:20.229Z,3.43
2023-05-05T22:55:09.521Z,3.80
2023-05-05T22:57:58.238Z,3.60
2023-05-05T23:00:48.077Z,3.33
2023-05-05T23:03:36.805Z,4.23
2023-05-05T23:06:25.420Z,3.53
2023-05-05T23:09:13.884Z,4.10
2023-05-05T23:12:02.855Z,4.03
2023-05-05T23:14:51.468Z,3.97
2023-05-05T23:17:41.421Z,4.40
2023-05-05T23:20:30.021Z,4.43
2023-05-05T23:23:18.548Z,4.07
2023-05-05T23:26:07.115Z,4.40
2023-05-05T23:28:55.582Z,3.90
2023-05-05T23:31:44.035Z,4.33
2023-05-05T23:34:33.936Z,4.90
2023-05-05T23:37:22.929Z,5.30
2023-05-05T23:40:11.797Z,4.37
2023-05-05T23:43:00.945Z,4.40
2023-05-05T23:45:49.551Z,4.67
2023-05-05T23:48:38.009Z,4.77
2023-05-05T23:51:28.284Z,4.70
2023-05-05T23:54:16.821Z,4.70
2023-05-05T23:57:05.434Z,4.70
2023-05-05T23:59:53.899Z,4.57
